Time;durP1;ratioP1;P1;durP2;ratioP2;P2;SDS_P1;SDS_P2;PMS_P1;PMS_P2;Temp;Humidity;BMP_temperature;BMP_pressure;BME280_temperature;BME280_humidity;BME280_pressure;Samples;Min_cycle;Max_cycle;Signal;HPM_P1;HPM_P2
2023/10/05 00:03:51;;;;;;;;;;;;;;;;;;5060387;28;19952;-74
2023/10/05 00:06:24;;;;;;;;;;;;;;;;;;5081383;28;20383;-74
2023/10/05 00:08:49;;;;;;;;;;;;;;;;;;5081450;28;19915;-74
2023/10/05 00:11:28;;;;;;;;;;;;;;;;;;5079112;28;19912;-73
2023/10/05 00:13:57;;;;;;;;;;;;;;;;;;5072701;28;19912;-73
2023/10/05 00:16:22;;;;;;;;;;;;;;;;;;5079200;28;19908;-74
2023/10/05 00:18:49;;;;;;;;;;;;;;;;;;5082741;28;19919;-73
2023/10/05 00:21:18;;;;;;;;;;;;;;;;;;5073814;28;19915;-74
2023/10/05 00:23:47;;;;;;;;;;;;;;;;;;5086351;28;19912;-74
2023/10/05 00:26:14;;;;;;;;;;;;;;;;;;5078530;28;19912;-73
2023/10/05 00:28:44;;;;;;;;;;;;;;;;;;5083286;28;19915;-74
2023/10/05 00:31:10;;;;;;;;;;;;;;;;;;5075496;28;19921;-74
2023/10/05 00:33:36;;;;;;;;;;;;;;;;;;5088527;28;20028;-75
2023/10/05 00:36:05;;;;;;;;;;;;;;;;;;5075548;28;19928;-75
2023/10/05 00:38:31;;;;;;;;;;;;;;;;;;5080541;28;19957;-75
2023/10/05 00:41:08;;;;;;;;;;;;;;;;;;5079543;28;19913;-75
2023/10/05 00:43:36;;;;;;;;;;;;;;;;;;5082747;28;19908;-75
2023/10/05 00:46:03;;;;;;;;;;;;;;;;;;5075303;28;19908;-75
2023/10/05 00:50:57;;;;;;;;;;;;;;;;;;5083942;28;19960;-74
2023/10/05 00:53:27;;;;;;;;;;;;;;;;;;5103483;22;19952;-74
2023/10/05 00:56:04;;;;;;;;;;;;;;;;;;5091171;28;19999;-76
2023/10/05 00:58:37;;;;;;;;;;;;;;;;;;5091480;28;19916;-76
2023/10/05 01:01:14;;;;;;;;;;;;;;;;;;5089840;28;19965;-76
2023/10/05 01:04:12;;;;;;;;;;;;;;;;;;5098257;28;19960;-76
2023/10/05 01:06:40;;;;;;;;;;;;;;;;;;5079798;28;19995;-75
2023/10/05 01:09:07;;;;;;;;;;;;;;;;;;5096114;28;19912;-75
2023/10/05 01:11:54;;;;;;;;;;;;;;;;;;5086622;28;19919;-72
2023/10/05 01:14:23;;;;;;;;;;;;;;;;;;5090346;28;20379;-74
2023/10/05 01:16:49;;;;;;;;;;;;;;;;;;5095944;28;19912;-73
2023/10/05 01:19:18;;;;;;;;;;;;;;;;;;5087186;28;19919;-75
2023/10/05 01:21:44;;;;;;;;;;;;;;;;;;5083946;28;20363;-74
2023/10/05 01:24:11;;;;;;;;;;;;;;;;;;5084962;28;19916;-74
2023/10/05 01:26:37;;;;;;;;;;;;;;;;;;5092056;28;19916;-72
2023/10/05 01:29:03;;;;;;;;;;;;;;;;;;5089677;28;19908;-73
2023/10/05 01:31:29;;;;;;;;;;;;;;;;;;5089245;28;19969;-74
2023/10/05 01:33:55;;;;;;;;;;;;;;;;;;5084860;28;19908;-74
2023/10/05 01:36:23;;;;;;;;;;;;;;;;;;5090225;28;19908;-71
2023/10/05 01:38:49;;;;;;;;;;;;;;;;;;5086966;28;19918;-73
2023/10/05 01:41:17;;;;;;;;;;;;;;;;;;5086802;28;19983;-72
2023/10/05 01:43:43;;;;;;;;;;;;;;;;;;5084578;28;19916;-71
2023/10/05 01:46:10;;;;;;;;;;;;;;;;;;5083839;28;19908;-71
2023/10/05 01:48:36;;;;;;;;;;;;;;;;;;5086603;28;19915;-71
2023/10/05 01:51:14;;;;;;;;;;;;;;;;;;5086710;28;19908;-71
2023/10/05 01:53:41;;;;;;;;;;;;;;;;;;5088567;28;19924;-71
2023/10/05 01:56:07;;;;;;;;;;;;;;;;;;5083340;28;19909;-71
2023/10/05 01:58:39;;;;;;;;;;;;;;;;;;5086479;28;19919;-72
2023/10/05 02:01:06;;;;;;;;;;;;;;;;;;5086436;28;19916;-72
2023/10/05 02:03:33;;;;;;;;;;;;;;;;;;5085411;28;19917;-72
2023/10/05 02:06:03;;;;;;;;;;;;;;;;;;5083113;28;19912;-72
2023/10/05 02:08:33;;;;;;;;;;;;;;;;;;5086393;28;19912;-72
2023/10/05 02:11:01;;;;;;;;;;;;;;;;;;5086443;28;19953;-71
2023/10/05 02:13:29;;;;;;;;;;;;;;;;;;5085815;28;20386;-70
2023/10/05 02:15:55;;;;;;;;;;;;;;;;;;5083424;28;19915;-72
2023/10/05 02:18:24;;;;;;;;;;;;;;;;;;5085304;28;19919;-71
2023/10/05 02:21:05;;;;;;;;;;;;;;;;;;5094860;28;19962;-73
2023/10/05 02:23:37;;;;;;;;;;;;;;;;;;5085982;28;20298;-72
2023/10/05 02:28:47;;;;;;;;;;;;;;;;;;5080713;28;20060;-73
2023/10/05 02:31:13;;;;;;;;;;;;;;;;;;5086722;28;19940;-73
2023/10/05 02:33:42;;;;;;;;;;;;;;;;;;5085506;28;19912;-73
2023/10/05 02:36:13;;;;;;;;;;;;;;;;;;5096028;28;19908;-73
2023/10/05 02:38:47;;;;;;;;;;;;;;;;;;5098999;28;20035;-73
2023/10/05 02:41:17;;;;;;;;;;;;;;;;;;5090454;28;19908;-74
2023/10/05 02:43:51;;;;;;;;;;;;;;;;;;5091682;28;19986;-74
2023/10/05 02:46:17;;;;;;;;;;;;;;;;;;5097027;28;20311;-74
2023/10/05 02:48:43;;;;;;;;;;;;;;;;;;5090549;28;19916;-73
2023/10/05 02:51:11;;;;;;;;;;;;;;;;;;5106565;28;19908;-74
2023/10/05 02:53:46;;;;;;;;;;;;;;;;;;5090166;28;19922;-73
2023/10/05 02:56:13;;;;;;;;;;;;;;;;;;5096104;28;19928;-74
2023/10/05 02:58:38;;;;;;;;;;;;;;;;;;5090272;28;19913;-74
2023/10/05 03:01:05;;;;;;;;;;;;;;;;;;5088887;28;19915;-73
2023/10/05 03:03:33;;;;;;;;;;;;;;;;;;5093013;28;20461;-72
2023/10/05 03:05:59;;;;;;;;;;;;;;;;;;5093116;28;19946;-74
2023/10/05 03:08:29;;;;;;;;;;;;;;;;;;5096908;28;19908;-72
2023/10/05 03:10:59;;;;;;;;;;;;;;;;;;5091811;28;19916;-73
2023/10/05 03:13:26;;;;;;;;;;;;;;;;;;5089243;28;20393;-72
2023/10/05 03:15:54;;;;;;;;;;;;;;;;;;5086711;28;19966;-74
2023/10/05 03:18:20;;;;;;;;;;;;;;;;;;5087825;28;20294;-72
2023/10/05 03:20:46;;;;;;;;;;;;;;;;;;5103756;28;19908;-73
2023/10/05 03:23:14;;;;;;;;;;;;;;;;;;5088241;28;19908;-75
2023/10/05 03:25:40;;;;;;;;;;;;;;;;;;5092666;28;19912;-75
2023/10/05 03:28:06;;;;;;;;;;;;;;;;;;5093934;28;20585;-71
2023/10/05 03:30:35;;;;;;;;;;;;;;;;;;5089086;28;19911;-71
2023/10/05 03:33:01;;;;;;;;;;;;;;;;;;5089212;28;19919;-70
2023/10/05 03:35:27;;;;;;;;;;;;;;;;;;5088092;28;19908;-70
2023/10/05 03:37:53;;;;;;;;;;;;;;;;;;5092638;28;20018;-73
2023/10/05 03:40:24;;;;;;;;;;;;;;;;;;5088745;28;19918;-70
2023/10/05 03:42:58;;;;;;;;;;;;;;;;;;5088871;28;19916;-71
2023/10/05 03:45:24;;;;;;;;;;;;;;;;;;5086089;28;19912;-72
2023/10/05 03:47:50;;;;;;;;;;;;;;;;;;5086199;28;19912;-71
2023/10/05 03:50:19;;;;;;;;;;;;;;;;;;5091850;28;19909;-72
2023/10/05 03:52:45;;;;;;;;;;;;;;;;;;5087339;28;19912;-71
2023/10/05 03:55:11;;;;;;;;;;;;;;;;;;5092142;28;19908;-71
2023/10/05 03:57:37;;;;;;;;;;;;;;;;;;5087689;28;19912;-71
2023/10/05 04:00:18;;;;;;;;;;;;;;;;;;5084219;28;19912;-70
2023/10/05 04:02:44;;;;;;;;;;;;;;;;;;5097803;28;19999;-71
2023/10/05 04:05:10;;;;;;;;;;;;;;;;;;5088517;28;19947;-72
2023/10/05 04:07:37;;;;;;;;;;;;;;;;;;5088237;28;19915;-71
2023/10/05 04:10:03;;;;;;;;;;;;;;;;;;5089934;28;19931;-72
2023/10/05 04:12:32;;;;;;;;;;;;;;;;;;5096233;28;19916;-71
2023/10/05 04:15:00;;;;;;;;;;;;;;;;;;5087806;28;19950;-71
2023/10/05 04:17:26;;;;;;;;;;;;;;;;;;5086551;28;19908;-71
2023/10/05 04:19:52;;;;;;;;;;;;;;;;;;5085642;28;19947;-71
2023/10/05 04:22:18;;;;;;;;;;;;;;;;;;5086302;28;19908;-72
2023/10/05 04:24:45;;;;;;;;;;;;;;;;;;5087547;28;20279;-71
2023/10/05 04:27:12;;;;;;;;;;;;;;;;;;5088105;28;19909;-71
2023/10/05 04:29:37;;;;;;;;;;;;;;;;;;5087244;28;20295;-71
2023/10/05 04:32:03;;;;;;;;;;;;;;;;;;5084458;28;19908;-71
2023/10/05 04:34:31;;;;;;;;;;;;;;;;;;5086867;28;20060;-72
2023/10/05 04:36:58;;;;;;;;;;;;;;;;;;5087786;28;20356;-71
2023/10/05 04:39:32;;;;;;;;;;;;;;;;;;5087415;28;19916;-72
2023/10/05 04:42:06;;;;;;;;;;;;;;;;;;5084519;28;19908;-72
2023/10/05 04:44:34;;;;;;;;;;;;;;;;;;5086890;28;20271;-72
2023/10/05 04:46:59;;;;;;;;;;;;;;;;;;5087617;28;19912;-71
2023/10/05 04:49:27;;;;;;;;;;;;;;;;;;5087552;28;19938;-72
2023/10/05 04:51:56;;;;;;;;;;;;;;;;;;5089119;28;19939;-71
2023/10/05 04:54:25;;;;;;;;;;;;;;;;;;5085144;28;19920;-72
2023/10/05 04:56:54;;;;;;;;;;;;;;;;;;5086714;28;19961;-72
2023/10/05 04:59:37;;;;;;;;;;;;;;;;;;5087126;28;19969;-72
2023/10/05 05:02:17;;;;;;;;;;;;;;;;;;5083840;28;19908;-72
2023/10/05 05:07:12;;;;;;;;;;;;;;;;;;5087391;28;19915;-73
2023/10/05 05:09:39;;;;;;;;;;;;;;;;;;5086239;28;19954;-73
2023/10/05 05:12:05;;;;;;;;;;;;;;;;;;5083680;28;19912;-72
2023/10/05 05:14:34;;;;;;;;;;;;;;;;;;5086293;28;19908;-69
2023/10/05 05:17:02;;;;;;;;;;;;;;;;;;5095564;28;19916;-71
2023/10/05 05:19:28;;;;;;;;;;;;;;;;;;5087163;28;19912;-72
2023/10/05 05:21:53;;;;;;;;;;;;;;;;;;5083931;28;20321;-71
2023/10/05 05:24:19;;;;;;;;;;;;;;;;;;5083246;28;20076;-73
2023/10/05 05:26:46;;;;;;;;;;;;;;;;;;5092516;28;20027;-73
2023/10/05 05:29:13;;;;;;;;;;;;;;;;;;5086373;28;19908;-77
2023/10/05 05:31:39;;;;;;;;;;;;;;;;;;5086225;28;19915;-73
2023/10/05 05:34:10;;;;;;;;;;;;;;;;;;5083535;28;19908;-74
2023/10/05 05:36:41;;;;;;;;;;;;;;;;;;5080409;28;19999;-76
2023/10/05 05:39:07;;;;;;;;;;;;;;;;;;5099567;28;19912;-77
2023/10/05 05:41:37;;;;;;;;;;;;;;;;;;5102806;28;19908;-72
2023/10/05 05:44:03;;;;;;;;;;;;;;;;;;5086547;28;20013;-73
2023/10/05 05:46:29;;;;;;;;;;;;;;;;;;5087686;28;19962;-72
2023/10/05 05:48:54;;;;;;;;;;;;;;;;;;5085687;28;19908;-73
2023/10/05 05:51:23;;;;;;;;;;;;;;;;;;5095501;28;19915;-73
2023/10/05 05:53:50;;;;;;;;;;;;;;;;;;5083396;28;20398;-73
2023/10/05 05:56:19;;;;;;;;;;;;;;;;;;5083849;28;20023;-72
2023/10/05 05:58:45;;;;;;;;;;;;;;;;;;5085203;28;19919;-71
2023/10/05 06:01:14;;;;;;;;;;;;;;;;;;5086408;28;19908;-73
2023/10/05 06:03:41;;;;;;;;;;;;;;;;;;5083155;28;19972;-72
2023/10/05 06:06:07;;;;;;;;;;;;;;;;;;5082954;28;19912;-72
2023/10/05 06:08:32;;;;;;;;;;;;;;;;;;5086247;28;20427;-73
2023/10/05 06:10:58;;;;;;;;;;;;;;;;;;5086115;28;19916;-73
2023/10/05 06:13:24;;;;;;;;;;;;;;;;;;5084408;28;20268;-72
2023/10/05 06:15:50;;;;;;;;;;;;;;;;;;5081007;28;20096;-71
2023/10/05 06:18:19;;;;;;;;;;;;;;;;;;5081198;28;19920;-72
2023/10/05 06:20:46;;;;;;;;;;;;;;;;;;5082065;28;19912;-70
2023/10/05 06:23:12;;;;;;;;;;;;;;;;;;5083202;28;19912;-72
2023/10/05 06:25:39;;;;;;;;;;;;;;;;;;5080294;28;19944;-71
2023/10/05 06:28:04;;;;;;;;;;;;;;;;;;5080100;28;19913;-73
2023/10/05 06:30:32;;;;;;;;;;;;;;;;;;5083171;28;19916;-74
2023/10/05 06:32:58;;;;;;;;;;;;;;;;;;5070978;28;19913;-73
2023/10/05 06:35:24;;;;;;;;;;;;;;;;;;5073210;28;19916;-71
2023/10/05 06:37:50;;;;;;;;;;;;;;;;;;5078347;28;19916;-73
2023/10/05 06:40:21;;;;;;;;;;;;;;;;;;5071954;28;19912;-74
2023/10/05 06:42:49;;;;;;;;;;;;;;;;;;5072027;28;19927;-70
2023/10/05 06:45:15;;;;;;;;;;;;;;;;;;5072044;28;19909;-73
2023/10/05 06:47:41;;;;;;;;;;;;;;;;;;5074304;28;19919;-73
2023/10/05 06:50:10;;;;;;;;;;;;;;;;;;5075829;28;19908;-71
2023/10/05 06:52:46;;;;;;;;;;;;;;;;;;5073165;28;19928;-71
2023/10/05 06:55:12;;;;;;;;;;;;;;;;;;5068683;28;19908;-72
2023/10/05 06:57:38;;;;;;;;;;;;;;;;;;5075559;28;20440;-71
2023/10/05 07:00:11;;;;;;;;;;;;;;;;;;5075030;28;19920;-72
2023/10/05 07:02:37;;;;;;;;;;;;;;;;;;5074793;28;19916;-72
2023/10/05 07:05:05;;;;;;;;;;;;;;;;;;5070481;28;19961;-73
2023/10/05 07:07:31;;;;;;;;;;;;;;;;;;5076856;28;19912;-73
2023/10/05 07:09:57;;;;;;;;;;;;;;;;;;5083536;28;19909;-73
2023/10/05 07:12:24;;;;;;;;;;;;;;;;;;5079583;28;19908;-73
2023/10/05 07:14:50;;;;;;;;;;;;;;;;;;5080045;28;20358;-72
2023/10/05 07:17:16;;;;;;;;;;;;;;;;;;5079768;28;20002;-71
2023/10/05 07:19:47;;;;;;;;;;;;;;;;;;5081251;28;20288;-70
2023/10/05 07:22:13;;;;;;;;;;;;;;;;;;5085012;28;19932;-70
2023/10/05 07:24:41;;;;;;;;;;;;;;;;;;5112086;22;19950;-74
2023/10/05 07:27:10;;;;;;;;;;;;;;;;;;5106485;28;19914;-73
2023/10/05 07:29:36;;;;;;;;;;;;;;;;;;5105379;28;19954;-74
2023/10/05 07:32:02;;;;;;;;;;;;;;;;;;5096751;28;20347;-75
2023/10/05 07:34:30;;;;;;;;;;;;;;;;;;5100286;28;19998;-74
2023/10/05 07:36:57;;;;;;;;;;;;;;;;;;5113010;28;20052;-75
2023/10/05 07:39:23;;;;;;;;;;;;;;;;;;5114176;28;19916;-73
2023/10/05 07:41:49;;;;;;;;;;;;;;;;;;5112316;28;20383;-75
2023/10/05 07:44:15;;;;;;;;;;;;;;;;;;5113559;28;19932;-73
2023/10/05 07:46:43;;;;;;;;;;;;;;;;;;5114022;28;19947;-74
2023/10/05 07:49:08;;;;;;;;;;;;;;;;;;5113131;28;19908;-75
2023/10/05 07:51:37;;;;;;;;;;;;;;;;;;5113909;28;19908;-75
2023/10/05 07:54:05;;;;;;;;;;;;;;;;;;5109507;28;20390;-75
2023/10/05 07:56:32;;;;;;;;;;;;;;;;;;5112631;28;19915;-75
2023/10/05 07:59:01;;;;;;;;;;;;;;;;;;5112280;28;19919;-76
2023/10/05 08:01:30;;;;;;;;;;;;;;;;;;5112560;28;19927;-75
2023/10/05 08:03:55;;;;;;;;;;;;;;;;;;5113620;28;19915;-75
2023/10/05 08:06:25;;;;;;;;;;;;;;;;;;5113959;28;20313;-75
2023/10/05 08:08:51;;;;;;;;;;;;;;;;;;5112662;28;19911;-76
2023/10/05 08:11:17;;;;;;;;;;;;;;;;;;5113786;28;19912;-74
2023/10/05 08:13:43;;;;;;;;;;;;;;;;;;5113013;28;19918;-75
2023/10/05 08:16:09;;;;;;;;;;;;;;;;;;5114185;28;19912;-75
2023/10/05 08:18:36;;;;;;;;;;;;;;;;;;5112633;28;19912;-74
2023/10/05 08:21:02;;;;;;;;;;;;;;;;;;5113959;28;19912;-76
2023/10/05 08:23:28;;;;;;;;;;;;;;;;;;5111902;28;19915;-74
2023/10/05 08:25:57;;;;;;;;;;;;;;;;;;5111695;28;19938;-74
2023/10/05 08:28:24;;;;;;;;;;;;;;;;;;5112339;28;19908;-75
2023/10/05 08:31:04;;;;;;;;;;;;;;;;;;5112113;28;20374;-75
2023/10/05 08:33:33;;;;;;;;;;;;;;;;;;5112655;28;20015;-73
2023/10/05 08:35:59;;;;;;;;;;;;;;;;;;5108395;28;19908;-74
2023/10/05 08:38:25;;;;;;;;;;;;;;;;;;5113275;28;19918;-75
2023/10/05 08:40:52;;;;;;;;;;;;;;;;;;5113021;28;19907;-76
2023/10/05 08:43:19;;;;;;;;;;;;;;;;;;5111651;28;19915;-75
2023/10/05 08:45:51;;;;;;;;;;;;;;;;;;5110885;28;19911;-75
2023/10/05 08:50:58;;;;;;;;;;;;;;;;;;5113107;28;19908;-75
2023/10/05 08:53:28;;;;;;;;;;;;;;;;;;5111140;28;20371;-76
2023/10/05 08:55:54;;;;;;;;;;;;;;;;;;5112766;28;19908;-74
2023/10/05 08:58:20;;;;;;;;;;;;;;;;;;5112942;28;19920;-74
2023/10/05 09:00:46;;;;;;;;;;;;;;;;;;5112752;28;19915;-74
2023/10/05 09:03:35;;;;;;;;;;;;;;;;;;5111127;28;19908;-75
2023/10/05 09:06:13;;;;;;;;;;;;;;;;;;5111084;28;20002;-74
2023/10/05 09:08:39;;;;;;;;;;;;;;;;;;5105041;28;19908;-76
2023/10/05 09:11:08;;;;;;;;;;;;;;;;;;5111197;28;19912;-74
2023/10/05 09:13:35;;;;;;;;;;;;;;;;;;5112006;28;19914;-74
2023/10/05 09:16:01;;;;;;;;;;;;;;;;;;5112424;28;19968;-75
2023/10/05 09:18:30;;;;;;;;;;;;;;;;;;5111294;28;19912;-76
2023/10/05 09:20:59;;;;;;;;;;;;;;;;;;5107379;28;19912;-75
2023/10/05 09:23:25;;;;;;;;;;;;;;;;;;5112169;28;19907;-73
2023/10/05 09:25:53;;;;;;;;;;;;;;;;;;5111588;28;19930;-76
2023/10/05 09:28:19;;;;;;;;;;;;;;;;;;5110895;28;19908;-76
2023/10/05 09:30:46;;;;;;;;;;;;;;;;;;5110744;28;19911;-75
2023/10/05 09:33:18;;;;;;;;;;;;;;;;;;5110605;28;19908;-75
2023/10/05 09:35:47;;;;;;;;;;;;;;;;;;5110118;28;19911;-75
2023/10/05 09:38:13;;;;;;;;;;;;;;;;;;5110331;28;20386;-75
2023/10/05 09:40:39;;;;;;;;;;;;;;;;;;5112240;28;19919;-75
2023/10/05 09:43:05;;;;;;;;;;;;;;;;;;5110069;28;19953;-74
2023/10/05 09:45:33;;;;;;;;;;;;;;;;;;5110960;28;20359;-75
2023/10/05 09:48:03;;;;;;;;;;;;;;;;;;5106085;28;19908;-75
2023/10/05 09:50:32;;;;;;;;;;;;;;;;;;5110554;28;19912;-75
2023/10/05 09:52:59;;;;;;;;;;;;;;;;;;5111531;28;19907;-74
2023/10/05 09:55:25;;;;;;;;;;;;;;;;;;5106435;28;20040;-75
2023/10/05 09:58:01;;;;;;;;;;;;;;;;;;5110178;28;20358;-75
2023/10/05 10:02:58;;;;;;;;;;;;;;;;;;5111603;28;20002;-74
2023/10/05 10:05:30;;;;;;;;;;;;;;;;;;5106515;28;19995;-75
2023/10/05 10:07:56;;;;;;;;;;;;;;;;;;5110011;28;19973;-74
2023/10/05 10:10:22;;;;;;;;;;;;;;;;;;5109945;28;20408;-73
2023/10/05 10:12:51;;;;;;;;;;;;;;;;;;5108816;28;19916;-74
2023/10/05 10:15:25;;;;;;;;;;;;;;;;;;5110633;28;19908;-70
2023/10/05 10:17:53;;;;;;;;;;;;;;;;;;5111028;28;19918;-74
2023/10/05 10:20:34;;;;;;;;;;;;;;;;;;5109078;28;20371;-74
2023/10/05 10:23:00;;;;;;;;;;;;;;;;;;5110116;28;19912;-74
2023/10/05 10:25:26;;;;;;;;;;;;;;;;;;5110732;28;20510;-73
2023/10/05 10:27:53;;;;;;;;;;;;;;;;;;5111476;28;19926;-74
2023/10/05 10:30:23;;;;;;;;;;;;;;;;;;5110218;28;20371;-74
2023/10/05 10:32:49;;;;;;;;;;;;;;;;;;5110033;28;20286;-73
2023/10/05 10:35:26;;;;;;;;;;;;;;;;;;5110093;28;19908;-73
2023/10/05 10:37:54;;;;;;;;;;;;;;;;;;5110164;28;19916;-73
2023/10/05 10:42:46;;;;;;;;;;;;;;;;;;5112136;28;19908;-74
2023/10/05 10:45:12;;;;;;;;;;;;;;;;;;5111363;28;19908;-74
2023/10/05 10:47:39;;;;;;;;;;;;;;;;;;5111816;28;20477;-73
2023/10/05 10:50:22;;;;;;;;;;;;;;;;;;5112038;28;20263;-75
2023/10/05 10:52:56;;;;;;;;;;;;;;;;;;5101773;28;21859;-74
2023/10/05 10:55:22;;;;;;;;;;;;;;;;;;5112756;28;20410;-72
2023/10/05 10:57:48;;;;;;;;;;;;;;;;;;5113631;28;19926;-72
2023/10/05 11:00:44;;;;;;;;;;;;;;;;;;5115347;28;20046;-74
2023/10/05 11:03:10;;;;;;;;;;;;;;;;;;5115162;28;19907;-75
2023/10/05 11:05:37;;;;;;;;;;;;;;;;;;5114432;28;19908;-74
2023/10/05 11:08:05;;;;;;;;;;;;;;;;;;5116502;28;19908;-73
2023/10/05 11:10:33;;;;;;;;;;;;;;;;;;5114562;28;19939;-73
2023/10/05 11:13:03;;;;;;;;;;;;;;;;;;5114992;28;20367;-73
2023/10/05 11:15:32;;;;;;;;;;;;;;;;;;5113763;28;20349;-74
2023/10/05 11:17:59;;;;;;;;;;;;;;;;;;5109629;28;19961;-74
2023/10/05 11:20:27;;;;;;;;;;;;;;;;;;5113240;28;19941;-74
2023/10/05 11:23:01;;;;;;;;;;;;;;;;;;5114490;28;20296;-73
2023/10/05 11:25:36;;;;;;;;;;;;;;;;;;5113302;28;19971;-72
2023/10/05 11:28:07;;;;;;;;;;;;;;;;;;5110268;28;19907;-71
2023/10/05 11:30:45;;;;;;;;;;;;;;;;;;5106385;28;19908;-74
2023/10/05 11:33:15;;;;;;;;;;;;;;;;;;5112991;28;19915;-74
2023/10/05 11:35:42;;;;;;;;;;;;;;;;;;5113596;28;19915;-74
2023/10/05 11:38:14;;;;;;;;;;;;;;;;;;5114191;28;19915;-73
2023/10/05 11:40:49;;;;;;;;;;;;;;;;;;5105263;28;19960;-74
2023/10/05 11:43:16;;;;;;;;;;;;;;;;;;5112516;28;19912;-74
2023/10/05 11:45:42;;;;;;;;;;;;;;;;;;5112425;28;19911;-74
2023/10/05 11:48:12;;;;;;;;;;;;;;;;;;5113297;28;20276;-74
2023/10/05 11:50:41;;;;;;;;;;;;;;;;;;5106377;28;19941;-74
2023/10/05 11:53:11;;;;;;;;;;;;;;;;;;5114443;28;19916;-75
2023/10/05 11:55:39;;;;;;;;;;;;;;;;;;5110614;28;19952;-74
2023/10/05 11:58:08;;;;;;;;;;;;;;;;;;5112622;28;19912;-74
2023/10/05 12:00:35;;;;;;;;;;;;;;;;;;5105346;28;19947;-74
2023/10/05 12:03:00;;;;;;;;;;;;;;;;;;5112457;28;19916;-74
2023/10/05 12:05:30;;;;;;;;;;;;;;;;;;5112421;28;19915;-73
2023/10/05 12:07:59;;;;;;;;;;;;;;;;;;5111014;28;20035;-74
2023/10/05 12:10:25;;;;;;;;;;;;;;;;;;5113746;28;20059;-74
2023/10/05 12:13:02;;;;;;;;;;;;;;;;;;5113737;28;19939;-74
2023/10/05 12:15:28;;;;;;;;;;;;;;;;;;5112570;28;19951;-73
2023/10/05 12:17:56;;;;;;;;;;;;;;;;;;5113596;27;19998;-73
2023/10/05 12:20:22;;;;;;;;;;;;;;;;;;5112409;28;19908;-73
2023/10/05 12:22:49;;;;;;;;;;;;;;;;;;5112835;28;19915;-74
2023/10/05 12:25:15;;;;;;;;;;;;;;;;;;5110189;28;20328;-73
2023/10/05 12:27:41;;;;;;;;;;;;;;;;;;5111859;28;19914;-71
2023/10/05 12:30:11;;;;;;;;;;;;;;;;;;5113025;28;19907;-72
2023/10/05 12:32:37;;;;;;;;;;;;;;;;;;5105186;28;19918;-72
2023/10/05 12:35:02;;;;;;;;;;;;;;;;;;5112198;28;19994;-72
2023/10/05 12:37:29;;;;;;;;;;;;;;;;;;5111804;28;19916;-73
2023/10/05 12:39:56;;;;;;;;;;;;;;;;;;5112925;27;19912;-75
2023/10/05 12:42:21;;;;;;;;;;;;;;;;;;5112608;27;19919;-74
2023/10/05 12:44:48;;;;;;;;;;;;;;;;;;5105850;28;21296;-73
2023/10/05 12:47:14;;;;;;;;;;;;;;;;;;5111293;28;19990;-74
2023/10/05 12:49:40;;;;;;;;;;;;;;;;;;5111754;28;20351;-74
2023/10/05 12:52:09;;;;;;;;;;;;;;;;;;5111651;28;20375;-74
2023/10/05 12:54:37;;;;;;;;;;;;;;;;;;5106465;28;19907;-75
2023/10/05 12:57:10;;;;;;;;;;;;;;;;;;5109767;28;19911;-74
2023/10/05 12:59:36;;;;;;;;;;;;;;;;;;5108540;28;19918;-73
2023/10/05 13:02:13;;;;;;;;;;;;;;;;;;5112684;28;19907;-73
2023/10/05 13:04:38;;;;;;;;;;;;;;;;;;5103235;28;20567;-73
2023/10/05 13:07:04;;;;;;;;;;;;;;;;;;5110889;28;19908;-74
2023/10/05 13:09:32;;;;;;;;;;;;;;;;;;5112273;28;20410;-72
2023/10/05 13:11:58;;;;;;;;;;;;;;;;;;5107511;28;20006;-72
2023/10/05 13:14:24;;;;;;;;;;;;;;;;;;5111931;28;19907;-70
2023/10/05 13:16:51;;;;;;;;;;;;;;;;;;5112240;28;20298;-73
2023/10/05 13:19:19;;;;;;;;;;;;;;;;;;5111911;28;19912;-74
2023/10/05 13:21:45;;;;;;;;;;;;;;;;;;5112174;28;19922;-74
2023/10/05 13:24:11;;;;;;;;;;;;;;;;;;5110937;28;19912;-71
2023/10/05 13:26:37;;;;;;;;;;;;;;;;;;5112481;28;19919;-74
2023/10/05 13:29:07;;;;;;;;;;;;;;;;;;5112764;28;20367;-73
2023/10/05 13:31:33;;;;;;;;;;;;;;;;;;5111833;28;19908;-73
2023/10/05 13:34:02;;;;;;;;;;;;;;;;;;5111507;28;20275;-73
2023/10/05 13:36:30;;;;;;;;;;;;;;;;;;5111914;28;19907;-74
2023/10/05 13:38:57;;;;;;;;;;;;;;;;;;5110476;28;19918;-73
2023/10/05 13:41:27;;;;;;;;;;;;;;;;;;5112028;28;19908;-74
2023/10/05 13:43:53;;;;;;;;;;;;;;;;;;5111245;28;19961;-74
2023/10/05 13:46:19;;;;;;;;;;;;;;;;;;5108133;28;20696;-73
2023/10/05 13:48:45;;;;;;;;;;;;;;;;;;5110154;27;19918;-73
2023/10/05 13:51:19;;;;;;;;;;;;;;;;;;5116871;27;20010;-74
2023/10/05 13:53:45;;;;;;;;;;;;;;;;;;5116129;27;19912;-71
2023/10/05 13:56:12;;;;;;;;;;;;;;;;;;5108307;28;19961;-73
2023/10/05 13:58:41;;;;;;;;;;;;;;;;;;5114401;27;20240;-72
2023/10/05 14:01:12;;;;;;;;;;;;;;;;;;5103772;28;19915;-75
2023/10/05 14:03:39;;;;;;;;;;;;;;;;;;5100068;28;20007;-74
2023/10/05 14:06:05;;;;;;;;;;;;;;;;;;5110196;28;19907;-74
2023/10/05 14:08:31;;;;;;;;;;;;;;;;;;5113188;28;19923;-75
2023/10/05 14:11:09;;;;;;;;;;;;;;;;;;5105353;28;19911;-75
2023/10/05 14:13:35;;;;;;;;;;;;;;;;;;5098990;28;19924;-75
2023/10/05 14:16:04;;;;;;;;;;;;;;;;;;5101378;28;19920;-74
2023/10/05 14:18:30;;;;;;;;;;;;;;;;;;5102768;28;20374;-72
2023/10/05 14:20:56;;;;;;;;;;;;;;;;;;5101184;28;20288;-71
2023/10/05 14:23:24;;;;;;;;;;;;;;;;;;5104960;28;19960;-71
2023/10/05 14:25:50;;;;;;;;;;;;;;;;;;5096076;28;19920;-75
2023/10/05 14:28:20;;;;;;;;;;;;;;;;;;5105294;28;19907;-75
2023/10/05 14:30:52;;;;;;;;;;;;;;;;;;5106977;27;19942;-72
2023/10/05 14:33:18;;;;;;;;;;;;;;;;;;5113590;28;19980;-76
2023/10/05 14:35:44;;;;;;;;;;;;;;;;;;5111917;28;19908;-76
2023/10/05 14:38:19;;;;;;;;;;;;;;;;;;5114064;28;19974;-75
2023/10/05 14:40:45;;;;;;;;;;;;;;;;;;5114574;28;19914;-75
2023/10/05 14:43:20;;;;;;;;;;;;;;;;;;5113226;28;20589;-76
2023/10/05 14:45:48;;;;;;;;;;;;;;;;;;5111807;28;19931;-76
2023/10/05 14:48:14;;;;;;;;;;;;;;;;;;5112503;28;19907;-76
2023/10/05 14:50:40;;;;;;;;;;;;;;;;;;5115113;28;19918;-74
2023/10/05 14:53:11;;;;;;;;;;;;;;;;;;5115185;28;19912;-74
2023/10/05 14:55:37;;;;;;;;;;;;;;;;;;5109259;28;19909;-75
2023/10/05 14:58:08;;;;;;;;;;;;;;;;;;5114827;28;20424;-75
2023/10/05 15:00:35;;;;;;;;;;;;;;;;;;5115199;28;19912;-75
2023/10/05 15:03:01;;;;;;;;;;;;;;;;;;5113875;28;20298;-75
2023/10/05 15:05:26;;;;;;;;;;;;;;;;;;5112980;28;20320;-75
2023/10/05 15:07:58;;;;;;;;;;;;;;;;;;5113493;28;19919;-76
2023/10/05 15:10:24;;;;;;;;;;;;;;;;;;5114716;28;19914;-76
2023/10/05 15:12:50;;;;;;;;;;;;;;;;;;5112299;28;19996;-75
2023/10/05 15:15:17;;;;;;;;;;;;;;;;;;5113852;28;20409;-73
2023/10/05 15:17:44;;;;;;;;;;;;;;;;;;5112655;28;20370;-74
2023/10/05 15:20:22;;;;;;;;;;;;;;;;;;5112854;28;20382;-75
2023/10/05 15:22:48;;;;;;;;;;;;;;;;;;5113401;28;19911;-75
2023/10/05 15:25:14;;;;;;;;;;;;;;;;;;5111908;28;19919;-75
2023/10/05 15:27:43;;;;;;;;;;;;;;;;;;5114474;28;19911;-77
2023/10/05 15:30:16;;;;;;;;;;;;;;;;;;5114640;28;20050;-79
2023/10/05 15:32:42;;;;;;;;;;;;;;;;;;5114370;28;19955;-76
2023/10/05 15:35:10;;;;;;;;;;;;;;;;;;5112349;28;19985;-76
2023/10/05 15:37:40;;;;;;;;;;;;;;;;;;5112737;28;19907;-76
2023/10/05 15:40:12;;;;;;;;;;;;;;;;;;5112344;28;19912;-75
2023/10/05 15:42:39;;;;;;;;;;;;;;;;;;5104226;28;19908;-75
2023/10/05 15:45:09;;;;;;;;;;;;;;;;;;5112167;28;19939;-76
2023/10/05 15:47:44;;;;;;;;;;;;;;;;;;5112939;28;19908;-75
2023/10/05 15:50:13;;;;;;;;;;;;;;;;;;5114264;28;19915;-73
2023/10/05 15:52:41;;;;;;;;;;;;;;;;;;5114318;28;19914;-73
2023/10/05 15:55:07;;;;;;;;;;;;;;;;;;5113193;28;19912;-75
2023/10/05 15:57:36;;;;;;;;;;;;;;;;;;5113785;28;19988;-75
2023/10/05 16:00:02;;;;;;;;;;;;;;;;;;5113051;28;19940;-74
2023/10/05 16:02:30;;;;;;;;;;;;;;;;;;5112044;28;19990;-75
2023/10/05 16:04:56;;;;;;;;;;;;;;;;;;5112904;28;20041;-72
2023/10/05 16:07:22;;;;;;;;;;;;;;;;;;5113315;28;20001;-75
2023/10/05 16:09:49;;;;;;;;;;;;;;;;;;5113314;28;19954;-74
2023/10/05 16:12:16;;;;;;;;;;;;;;;;;;5113647;28;19938;-74
2023/10/05 16:14:42;;;;;;;;;;;;;;;;;;5111373;28;19955;-75
2023/10/05 16:17:08;;;;;;;;;;;;;;;;;;5112953;28;19907;-75
2023/10/05 16:19:37;;;;;;;;;;;;;;;;;;5113203;28;20382;-75
2023/10/05 16:22:05;;;;;;;;;;;;;;;;;;5111657;28;19908;-72
2023/10/05 16:24:32;;;;;;;;;;;;;;;;;;5112489;28;19923;-73
2023/10/05 16:26:57;;;;;;;;;;;;;;;;;;5111256;28;19916;-74
2023/10/05 16:29:26;;;;;;;;;;;;;;;;;;5113594;28;20332;-73
2023/10/05 16:31:52;;;;;;;;;;;;;;;;;;5105853;28;20608;-74
2023/10/05 16:34:18;;;;;;;;;;;;;;;;;;5102905;28;19919;-73
2023/10/05 16:36:46;;;;;;;;;;;;;;;;;;5100764;28;19908;-75
2023/10/05 16:39:12;;;;;;;;;;;;;;;;;;5104594;28;20394;-72
2023/10/05 16:41:44;;;;;;;;;;;;;;;;;;5102102;28;19995;-76
2023/10/05 16:44:10;;;;;;;;;;;;;;;;;;5104600;28;20019;-75
2023/10/05 16:46:37;;;;;;;;;;;;;;;;;;5103438;28;20579;-74
2023/10/05 16:49:03;;;;;;;;;;;;;;;;;;5106532;28;19912;-72
2023/10/05 16:51:29;;;;;;;;;;;;;;;;;;5098950;28;19908;-75
2023/10/05 16:53:58;;;;;;;;;;;;;;;;;;5099449;28;19908;-74
2023/10/05 16:56:27;;;;;;;;;;;;;;;;;;5110077;28;20301;-74
2023/10/05 16:58:55;;;;;;;;;;;;;;;;;;5110505;28;19957;-74
2023/10/05 17:01:26;;;;;;;;;;;;;;;;;;5110355;28;19916;-73
2023/10/05 17:03:52;;;;;;;;;;;;;;;;;;5109019;27;21138;-74
2023/10/05 17:06:18;;;;;;;;;;;;;;;;;;5105997;27;19926;-74
2023/10/05 17:08:44;;;;;;;;;;;;;;;;;;5110761;27;20023;-73
2023/10/05 17:11:10;;;;;;;;;;;;;;;;;;5113648;27;20309;-75